sensor_id;sensor_type;location;lat;lon;timestamp;P1;durP1;ratioP1;P2;durP2;ratioP2
11008;SDS011;5557;51.670;7.788;2022-10-17T00:00:54;6.93;;;6.53;;
11008;SDS011;5557;51.670;7.788;2022-10-17T00:03:21;7.03;;;6.60;;
11008;SDS011;5557;51.670;7.788;2022-10-17T00:05:48;8.17;;;7.57;;
11008;SDS011;5557;51.670;7.788;2022-10-17T00:08:15;8.67;;;7.83;;
11008;SDS011;5557;51.670;7.788;2022-10-17T00:10:43;7.67;;;6.73;;
11008;SDS011;5557;51.670;7.788;2022-10-17T00:13:11;5.87;;;5.67;;
11008;SDS011;5557;51.670;7.788;2022-10-17T00:15:41;8.87;;;6.90;;
11008;SDS011;5557;51.670;7.788;2022-10-17T00:18:09;9.10;;;7.30;;
11008;SDS011;5557;51.670;7.788;2022-10-17T00:20:36;7.83;;;7.00;;
11008;SDS011;5557;51.670;7.788;2022-10-17T00:23:02;7.20;;;6.53;;
11008;SDS011;5557;51.670;7.788;2022-10-17T00:25:29;7.07;;;6.67;;
11008;SDS011;5557;51.670;7.788;2022-10-17T00:27:56;7.77;;;7.10;;
11008;SDS011;5557;51.670;7.788;2022-10-17T00:30:23;9.90;;;6.87;;
11008;SDS011;5557;51.670;7.788;2022-10-17T00:32:50;8.60;;;7.90;;
11008;SDS011;5557;51.670;7.788;2022-10-17T00:35:17;8.77;;;7.87;;
11008;SDS011;5557;51.670;7.788;2022-10-17T00:37:44;8.23;;;7.60;;
11008;SDS011;5557;51.670;7.788;2022-10-17T00:40:11;9.60;;;6.67;;
11008;SDS011;5557;51.670;7.788;2022-10-17T00:42:38;8.30;;;7.70;;
11008;SDS011;5557;51.670;7.788;2022-10-17T00:45:22;10.90;;;7.50;;
11008;SDS011;5557;51.670;7.788;2022-10-17T00:47:57;12.10;;;7.70;;
11008;SDS011;5557;51.670;7.788;2022-10-17T00:50:29;11.13;;;7.57;;
11008;SDS011;5557;51.670;7.788;2022-10-17T00:52:57;10.50;;;8.10;;
11008;SDS011;5557;51.670;7.788;2022-10-17T00:55:30;8.70;;;7.80;;
11008;SDS011;5557;51.670;7.788;2022-10-17T00:57:59;7.87;;;6.93;;
11008;SDS011;5557;51.670;7.788;2022-10-17T01:00:28;9.20;;;8.33;;
11008;SDS011;5557;51.670;7.788;2022-10-17T01:02:56;10.03;;;7.83;;
11008;SDS011;5557;51.670;7.788;2022-10-17T01:05:23;9.20;;;8.30;;
11008;SDS011;5557;51.670;7.788;2022-10-17T01:07:50;8.30;;;7.80;;
11008;SDS011;5557;51.670;7.788;2022-10-17T01:10:18;11.47;;;7.73;;
11008;SDS011;5557;51.670;7.788;2022-10-17T01:12:56;8.60;;;7.90;;
11008;SDS011;5557;51.670;7.788;2022-10-17T01:15:42;8.70;;;7.97;;
11008;SDS011;5557;51.670;7.788;2022-10-17T01:21:47;9.20;;;8.40;;
11008;SDS011;5557;51.670;7.788;2022-10-17T01:31:06;13.90;;;8.57;;
11008;SDS011;5557;51.670;7.788;2022-10-17T01:33:43;7.40;;;6.90;;
11008;SDS011;5557;51.670;7.788;2022-10-17T01:36:21;8.50;;;7.80;;
11008;SDS011;5557;51.670;7.788;2022-10-17T01:42:22;8.07;;;7.57;;
11008;SDS011;5557;51.670;7.788;2022-10-17T01:45:00;8.83;;;8.03;;
11008;SDS011;5557;51.670;7.788;2022-10-17T01:47:35;9.10;;;8.40;;
11008;SDS011;5557;51.670;7.788;2022-10-17T01:50:08;9.33;;;8.63;;
11008;SDS011;5557;51.670;7.788;2022-10-17T01:52:41;9.27;;;8.47;;
11008;SDS011;5557;51.670;7.788;2022-10-17T01:55:17;10.70;;;8.37;;
11008;SDS011;5557;51.670;7.788;2022-10-17T01:57:49;9.03;;;8.40;;
11008;SDS011;5557;51.670;7.788;2022-10-17T02:00:26;11.43;;;9.37;;
11008;SDS011;5557;51.670;7.788;2022-10-17T02:02:59;9.40;;;8.67;;
11008;SDS011;5557;51.670;7.788;2022-10-17T02:05:31;10.57;;;9.57;;
11008;SDS011;5557;51.670;7.788;2022-10-17T02:08:03;10.10;;;9.10;;
11008;SDS011;5557;51.670;7.788;2022-10-17T02:16:28;11.50;;;8.67;;
11008;SDS011;5557;51.670;7.788;2022-10-17T02:19:33;10.63;;;8.57;;
11008;SDS011;5557;51.670;7.788;2022-10-17T02:25:28;13.93;;;9.53;;
11008;SDS011;5557;51.670;7.788;2022-10-17T02:29:10;10.10;;;9.20;;
11008;SDS011;5557;51.670;7.788;2022-10-17T02:31:36;14.83;;;10.00;;
11008;SDS011;5557;51.670;7.788;2022-10-17T02:34:08;10.23;;;9.30;;
11008;SDS011;5557;51.670;7.788;2022-10-17T02:36:47;10.10;;;9.20;;
11008;SDS011;5557;51.670;7.788;2022-10-17T02:39:19;9.60;;;8.77;;
11008;SDS011;5557;51.670;7.788;2022-10-17T02:41:52;9.00;;;8.13;;
11008;SDS011;5557;51.670;7.788;2022-10-17T02:44:23;11.27;;;9.47;;
11008;SDS011;5557;51.670;7.788;2022-10-17T02:46:53;9.80;;;8.93;;
11008;SDS011;5557;51.670;7.788;2022-10-17T02:49:27;9.43;;;8.40;;
11008;SDS011;5557;51.670;7.788;2022-10-17T02:52:04;10.37;;;9.20;;
11008;SDS011;5557;51.670;7.788;2022-10-17T02:54:40;11.60;;;10.13;;
11008;SDS011;5557;51.670;7.788;2022-10-17T03:00:05;9.73;;;8.87;;
11008;SDS011;5557;51.670;7.788;2022-10-17T03:02:45;9.83;;;8.93;;
11008;SDS011;5557;51.670;7.788;2022-10-17T03:05:21;24.47;;;9.30;;
11008;SDS011;5557;51.670;7.788;2022-10-17T03:07:53;15.00;;;9.20;;
11008;SDS011;5557;51.670;7.788;2022-10-17T03:10:21;10.50;;;9.60;;
11008;SDS011;5557;51.670;7.788;2022-10-17T03:12:49;14.00;;;10.07;;
11008;SDS011;5557;51.670;7.788;2022-10-17T03:15:15;11.23;;;10.20;;
11008;SDS011;5557;51.670;7.788;2022-10-17T03:17:43;10.57;;;9.57;;
11008;SDS011;5557;51.670;7.788;2022-10-17T03:20:11;11.00;;;10.00;;
11008;SDS011;5557;51.670;7.788;2022-10-17T03:22:40;10.77;;;8.90;;
11008;SDS011;5557;51.670;7.788;2022-10-17T03:25:06;11.10;;;9.90;;
11008;SDS011;5557;51.670;7.788;2022-10-17T03:27:33;10.77;;;9.73;;
11008;SDS011;5557;51.670;7.788;2022-10-17T03:30:00;11.27;;;10.33;;
11008;SDS011;5557;51.670;7.788;2022-10-17T03:32:28;10.10;;;9.30;;
11008;SDS011;5557;51.670;7.788;2022-10-17T03:34:55;12.33;;;9.40;;
11008;SDS011;5557;51.670;7.788;2022-10-17T03:37:22;9.80;;;9.00;;
11008;SDS011;5557;51.670;7.788;2022-10-17T03:39:49;16.23;;;9.90;;
11008;SDS011;5557;51.670;7.788;2022-10-17T03:42:16;9.40;;;8.60;;
11008;SDS011;5557;51.670;7.788;2022-10-17T03:44:43;24.37;;;10.30;;
11008;SDS011;5557;51.670;7.788;2022-10-17T03:47:10;11.63;;;9.83;;
11008;SDS011;5557;51.670;7.788;2022-10-17T03:49:39;10.90;;;9.90;;
11008;SDS011;5557;51.670;7.788;2022-10-17T03:52:09;10.80;;;9.73;;
11008;SDS011;5557;51.670;7.788;2022-10-17T03:54:37;13.23;;;9.80;;
11008;SDS011;5557;51.670;7.788;2022-10-17T03:57:04;10.50;;;9.37;;
11008;SDS011;5557;51.670;7.788;2022-10-17T03:59:31;12.43;;;9.20;;
11008;SDS011;5557;51.670;7.788;2022-10-17T04:01:58;10.83;;;9.40;;
11008;SDS011;5557;51.670;7.788;2022-10-17T04:04:25;10.97;;;9.80;;
11008;SDS011;5557;51.670;7.788;2022-10-17T04:06:52;10.23;;;9.30;;
11008;SDS011;5557;51.670;7.788;2022-10-17T04:09:19;14.70;;;10.20;;
11008;SDS011;5557;51.670;7.788;2022-10-17T04:11:46;13.70;;;12.17;;
11008;SDS011;5557;51.670;7.788;2022-10-17T04:14:13;19.30;;;10.33;;
11008;SDS011;5557;51.670;7.788;2022-10-17T04:16:49;15.33;;;10.67;;
11008;SDS011;5557;51.670;7.788;2022-10-17T04:19:18;19.30;;;10.83;;
11008;SDS011;5557;51.670;7.788;2022-10-17T04:21:45;10.87;;;9.77;;
11008;SDS011;5557;51.670;7.788;2022-10-17T04:24:12;10.10;;;9.10;;
11008;SDS011;5557;51.670;7.788;2022-10-17T04:26:39;11.70;;;10.47;;
11008;SDS011;5557;51.670;7.788;2022-10-17T04:29:06;19.20;;;10.63;;
11008;SDS011;5557;51.670;7.788;2022-10-17T04:31:38;16.57;;;10.90;;
11008;SDS011;5557;51.670;7.788;2022-10-17T04:34:05;12.17;;;10.97;;
11008;SDS011;5557;51.670;7.788;2022-10-17T04:36:32;23.20;;;11.27;;
11008;SDS011;5557;51.670;7.788;2022-10-17T04:38:59;13.90;;;10.83;;
11008;SDS011;5557;51.670;7.788;2022-10-17T04:41:31;11.77;;;10.67;;
11008;SDS011;5557;51.670;7.788;2022-10-17T04:44:00;19.60;;;11.80;;
11008;SDS011;5557;51.670;7.788;2022-10-17T04:46:27;13.57;;;12.20;;
11008;SDS011;5557;51.670;7.788;2022-10-17T04:48:56;16.70;;;11.90;;
11008;SDS011;5557;51.670;7.788;2022-10-17T04:51:23;12.50;;;11.20;;
11008;SDS011;5557;51.670;7.788;2022-10-17T04:53:53;12.60;;;11.40;;
11008;SDS011;5557;51.670;7.788;2022-10-17T04:56:21;13.00;;;11.17;;
11008;SDS011;5557;51.670;7.788;2022-10-17T04:58:50;13.50;;;10.50;;
11008;SDS011;5557;51.670;7.788;2022-10-17T05:01:18;14.73;;;11.07;;
11008;SDS011;5557;51.670;7.788;2022-10-17T05:03:46;16.60;;;10.47;;
11008;SDS011;5557;51.670;7.788;2022-10-17T05:06:15;16.03;;;11.10;;
11008;SDS011;5557;51.670;7.788;2022-10-17T05:08:49;12.83;;;10.80;;
11008;SDS011;5557;51.670;7.788;2022-10-17T05:11:22;12.63;;;11.33;;
11008;SDS011;5557;51.670;7.788;2022-10-17T05:13:52;15.43;;;10.77;;
11008;SDS011;5557;51.670;7.788;2022-10-17T05:16:27;16.63;;;12.30;;
11008;SDS011;5557;51.670;7.788;2022-10-17T05:18:55;13.20;;;11.10;;
11008;SDS011;5557;51.670;7.788;2022-10-17T05:21:26;12.07;;;10.43;;
11008;SDS011;5557;51.670;7.788;2022-10-17T05:23:54;15.23;;;10.87;;
11008;SDS011;5557;51.670;7.788;2022-10-17T05:26:23;12.60;;;9.90;;
11008;SDS011;5557;51.670;7.788;2022-10-17T05:28:51;11.53;;;10.33;;
11008;SDS011;5557;51.670;7.788;2022-10-17T05:31:18;12.80;;;10.20;;
11008;SDS011;5557;51.670;7.788;2022-10-17T05:33:48;11.50;;;10.43;;
11008;SDS011;5557;51.670;7.788;2022-10-17T05:36:15;11.70;;;10.47;;
11008;SDS011;5557;51.670;7.788;2022-10-17T05:38:42;11.43;;;10.37;;
11008;SDS011;5557;51.670;7.788;2022-10-17T05:41:08;11.73;;;10.53;;
11008;SDS011;5557;51.670;7.788;2022-10-17T05:43:36;13.20;;;10.97;;
11008;SDS011;5557;51.670;7.788;2022-10-17T05:46:04;19.43;;;10.00;;
11008;SDS011;5557;51.670;7.788;2022-10-17T05:48:31;14.10;;;11.50;;
11008;SDS011;5557;51.670;7.788;2022-10-17T05:50:59;12.87;;;11.40;;
11008;SDS011;5557;51.670;7.788;2022-10-17T05:53:31;15.50;;;12.43;;
11008;SDS011;5557;51.670;7.788;2022-10-17T05:56:01;19.80;;;12.40;;
11008;SDS011;5557;51.670;7.788;2022-10-17T05:58:29;23.00;;;13.47;;
11008;SDS011;5557;51.670;7.788;2022-10-17T06:01:15;26.83;;;12.90;;
11008;SDS011;5557;51.670;7.788;2022-10-17T06:03:42;41.23;;;12.53;;
11008;SDS011;5557;51.670;7.788;2022-10-17T06:06:10;29.80;;;13.90;;
11008;SDS011;5557;51.670;7.788;2022-10-17T06:08:38;28.60;;;12.60;;
11008;SDS011;5557;51.670;7.788;2022-10-17T06:11:05;24.20;;;11.67;;
11008;SDS011;5557;51.670;7.788;2022-10-17T06:13:36;20.63;;;11.60;;
11008;SDS011;5557;51.670;7.788;2022-10-17T06:16:03;14.80;;;11.20;;
11008;SDS011;5557;51.670;7.788;2022-10-17T06:18:31;20.20;;;12.83;;
11008;SDS011;5557;51.670;7.788;2022-10-17T06:21:05;19.70;;;12.57;;
11008;SDS011;5557;51.670;7.788;2022-10-17T06:23:34;17.00;;;12.70;;
11008;SDS011;5557;51.670;7.788;2022-10-17T06:26:02;17.50;;;14.63;;
11008;SDS011;5557;51.670;7.788;2022-10-17T06:28:30;15.50;;;12.53;;
11008;SDS011;5557;51.670;7.788;2022-10-17T06:30:58;17.40;;;12.47;;
11008;SDS011;5557;51.670;7.788;2022-10-17T06:33:29;16.23;;;12.33;;
11008;SDS011;5557;51.670;7.788;2022-10-17T06:35:56;16.73;;;12.80;;
11008;SDS011;5557;51.670;7.788;2022-10-17T06:38:23;20.97;;;14.80;;
11008;SDS011;5557;51.670;7.788;2022-10-17T06:40:50;25.40;;;14.60;;
11008;SDS011;5557;51.670;7.788;2022-10-17T06:43:19;24.33;;;13.17;;
11008;SDS011;5557;51.670;7.788;2022-10-17T06:45:52;21.93;;;14.00;;
11008;SDS011;5557;51.670;7.788;2022-10-17T06:48:19;22.70;;;12.73;;
11008;SDS011;5557;51.670;7.788;2022-10-17T06:50:46;17.67;;;13.70;;
11008;SDS011;5557;51.670;7.788;2022-10-17T06:53:13;26.10;;;14.93;;
11008;SDS011;5557;51.670;7.788;2022-10-17T06:55:40;17.53;;;13.27;;
11008;SDS011;5557;51.670;7.788;2022-10-17T06:58:08;24.57;;;13.33;;
11008;SDS011;5557;51.670;7.788;2022-10-17T07:00:35;17.40;;;14.00;;
11008;SDS011;5557;51.670;7.788;2022-10-17T07:03:02;20.47;;;13.10;;
11008;SDS011;5557;51.670;7.788;2022-10-17T07:05:29;28.47;;;14.17;;
11008;SDS011;5557;51.670;7.788;2022-10-17T07:07:55;20.83;;;14.67;;
11008;SDS011;5557;51.670;7.788;2022-10-17T07:10:22;19.70;;;14.57;;
11008;SDS011;5557;51.670;7.788;2022-10-17T07:12:49;15.93;;;13.50;;
11008;SDS011;5557;51.670;7.788;2022-10-17T07:15:16;33.43;;;18.17;;
11008;SDS011;5557;51.670;7.788;2022-10-17T07:17:46;12.93;;;10.60;;
11008;SDS011;5557;51.670;7.788;2022-10-17T07:20:16;11.33;;;10.17;;
11008;SDS011;5557;51.670;7.788;2022-10-17T07:22:43;8.53;;;7.80;;
11008;SDS011;5557;51.670;7.788;2022-10-17T07:25:09;10.70;;;8.37;;
11008;SDS011;5557;51.670;7.788;2022-10-17T07:27:36;7.67;;;6.90;;
11008;SDS011;5557;51.670;7.788;2022-10-17T07:30:03;8.37;;;7.57;;
11008;SDS011;5557;51.670;7.788;2022-10-17T07:32:31;7.00;;;6.40;;
11008;SDS011;5557;51.670;7.788;2022-10-17T07:34:58;10.30;;;5.70;;
11008;SDS011;5557;51.670;7.788;2022-10-17T07:37:25;6.00;;;5.40;;
11008;SDS011;5557;51.670;7.788;2022-10-17T07:39:52;12.70;;;5.73;;
11008;SDS011;5557;51.670;7.788;2022-10-17T07:42:19;9.53;;;5.70;;
11008;SDS011;5557;51.670;7.788;2022-10-17T07:44:46;14.80;;;6.60;;
11008;SDS011;5557;51.670;7.788;2022-10-17T07:47:13;9.67;;;6.53;;
11008;SDS011;5557;51.670;7.788;2022-10-17T07:49:40;5.70;;;5.30;;
11008;SDS011;5557;51.670;7.788;2022-10-17T07:52:13;10.97;;;5.57;;
11008;SDS011;5557;51.670;7.788;2022-10-17T07:54:40;7.00;;;5.70;;
11008;SDS011;5557;51.670;7.788;2022-10-17T07:57:08;5.23;;;4.73;;
11008;SDS011;5557;51.670;7.788;2022-10-17T07:59:36;4.93;;;4.63;;
11008;SDS011;5557;51.670;7.788;2022-10-17T08:02:03;5.57;;;4.57;;
11008;SDS011;5557;51.670;7.788;2022-10-17T08:04:30;4.80;;;4.40;;
11008;SDS011;5557;51.670;7.788;2022-10-17T08:06:59;12.00;;;4.60;;
11008;SDS011;5557;51.670;7.788;2022-10-17T08:09:46;4.90;;;3.70;;
11008;SDS011;5557;51.670;7.788;2022-10-17T08:12:13;4.77;;;3.20;;
11008;SDS011;5557;51.670;7.788;2022-10-17T08:14:40;7.03;;;3.80;;
11008;SDS011;5557;51.670;7.788;2022-10-17T08:17:08;13.63;;;3.17;;
11008;SDS011;5557;51.670;7.788;2022-10-17T08:19:39;7.43;;;4.30;;
11008;SDS011;5557;51.670;7.788;2022-10-17T08:22:06;8.00;;;3.27;;
11008;SDS011;5557;51.670;7.788;2022-10-17T08:24:33;7.63;;;3.80;;
11008;SDS011;5557;51.670;7.788;2022-10-17T08:27:00;6.60;;;3.13;;
11008;SDS011;5557;51.670;7.788;2022-10-17T08:29:27;2.83;;;2.70;;
11008;SDS011;5557;51.670;7.788;2022-10-17T08:31:54;13.60;;;3.47;;
11008;SDS011;5557;51.670;7.788;2022-10-17T08:34:27;3.23;;;2.93;;
11008;SDS011;5557;51.670;7.788;2022-10-17T08:36:54;11.97;;;3.30;;
11008;SDS011;5557;51.670;7.788;2022-10-17T08:39:21;4.37;;;3.67;;
11008;SDS011;5557;51.670;7.788;2022-10-17T08:47:51;3.20;;;3.00;;
11008;SDS011;5557;51.670;7.788;2022-10-17T08:50:55;3.30;;;3.10;;
11008;SDS011;5557;51.670;7.788;2022-10-17T08:53:47;4.50;;;3.03;;
11008;SDS011;5557;51.670;7.788;2022-10-17T08:56:25;5.67;;;2.80;;
11008;SDS011;5557;51.670;7.788;2022-10-17T08:59:16;3.53;;;2.47;;
11008;SDS011;5557;51.670;7.788;2022-10-17T09:17:59;7.90;;;2.40;;
11008;SDS011;5557;51.670;7.788;2022-10-17T09:20:50;2.60;;;2.00;;
11008;SDS011;5557;51.670;7.788;2022-10-17T09:23:21;9.03;;;1.93;;
11008;SDS011;5557;51.670;7.788;2022-10-17T09:25:54;7.33;;;2.30;;
11008;SDS011;5557;51.670;7.788;2022-10-17T09:31:00;3.00;;;2.10;;
11008;SDS011;5557;51.670;7.788;2022-10-17T09:33:37;10.73;;;2.90;;
11008;SDS011;5557;51.670;7.788;2022-10-17T09:36:29;1.80;;;1.70;;
11008;SDS011;5557;51.670;7.788;2022-10-17T09:39:01;2.67;;;2.20;;
11008;SDS011;5557;51.670;7.788;2022-10-17T09:41:58;6.70;;;2.20;;
11008;SDS011;5557;51.670;7.788;2022-10-17T09:44:30;3.30;;;2.37;;
11008;SDS011;5557;51.670;7.788;2022-10-17T09:50:31;10.93;;;2.20;;
11008;SDS011;5557;51.670;7.788;2022-10-17T09:53:09;2.60;;;2.40;;
11008;SDS011;5557;51.670;7.788;2022-10-17T09:55:41;2.90;;;2.33;;
11008;SDS011;5557;51.670;7.788;2022-10-17T09:58:10;6.90;;;2.83;;
11008;SDS011;5557;51.670;7.788;2022-10-17T10:00:41;5.47;;;2.63;;
11008;SDS011;5557;51.670;7.788;2022-10-17T10:03:23;8.97;;;2.00;;
11008;SDS011;5557;51.670;7.788;2022-10-17T10:06:04;2.30;;;2.20;;
11008;SDS011;5557;51.670;7.788;2022-10-17T10:08:51;6.47;;;1.80;;
11008;SDS011;5557;51.670;7.788;2022-10-17T10:11:45;11.83;;;2.30;;
11008;SDS011;5557;51.670;7.788;2022-10-17T10:14:36;3.73;;;1.90;;
11008;SDS011;5557;51.670;7.788;2022-10-17T10:17:03;12.70;;;2.30;;
11008;SDS011;5557;51.670;7.788;2022-10-17T10:19:50;3.57;;;2.30;;
11008;SDS011;5557;51.670;7.788;2022-10-17T10:22:18;11.53;;;2.27;;
11008;SDS011;5557;51.670;7.788;2022-10-17T10:24:54;4.03;;;2.57;;
11008;SDS011;5557;51.670;7.788;2022-10-17T10:27:33;2.90;;;2.40;;
11008;SDS011;5557;51.670;7.788;2022-10-17T10:30:01;13.93;;;5.60;;
11008;SDS011;5557;51.670;7.788;2022-10-17T10:32:33;14.20;;;2.87;;
11008;SDS011;5557;51.670;7.788;2022-10-17T10:35:19;3.40;;;3.03;;
11008;SDS011;5557;51.670;7.788;2022-10-17T10:37:52;11.73;;;2.20;;
11008;SDS011;5557;51.670;7.788;2022-10-17T10:43:44;4.87;;;2.50;;
11008;SDS011;5557;51.670;7.788;2022-10-17T10:46:19;7.20;;;2.40;;
11008;SDS011;5557;51.670;7.788;2022-10-17T10:49:26;3.40;;;2.77;;
11008;SDS011;5557;51.670;7.788;2022-10-17T10:51:54;4.37;;;2.40;;
11008;SDS011;5557;51.670;7.788;2022-10-17T10:54:28;5.13;;;2.50;;
11008;SDS011;5557;51.670;7.788;2022-10-17T10:56:59;2.50;;;2.30;;
11008;SDS011;5557;51.670;7.788;2022-10-17T10:59:37;8.17;;;2.37;;
11008;SDS011;5557;51.670;7.788;2022-10-17T11:02:19;3.10;;;2.17;;
11008;SDS011;5557;51.670;7.788;2022-10-17T11:05:17;3.93;;;2.93;;
11008;SDS011;5557;51.670;7.788;2022-10-17T11:14:11;14.93;;;2.60;;
11008;SDS011;5557;51.670;7.788;2022-10-17T11:17:16;3.97;;;2.47;;
11008;SDS011;5557;51.670;7.788;2022-10-17T11:20:06;5.60;;;2.40;;
11008;SDS011;5557;51.670;7.788;2022-10-17T11:22:47;8.93;;;2.73;;
11008;SDS011;5557;51.670;7.788;2022-10-17T11:25:32;4.50;;;2.73;;
11008;SDS011;5557;51.670;7.788;2022-10-17T11:28:02;13.33;;;3.07;;
11008;SDS011;5557;51.670;7.788;2022-10-17T11:30:57;4.20;;;2.10;;
11008;SDS011;5557;51.670;7.788;2022-10-17T11:33:49;5.23;;;2.60;;
11008;SDS011;5557;51.670;7.788;2022-10-17T11:36:47;8.90;;;2.60;;
11008;SDS011;5557;51.670;7.788;2022-10-17T11:39:19;20.63;;;2.90;;
11008;SDS011;5557;51.670;7.788;2022-10-17T11:42:16;12.13;;;3.50;;
11008;SDS011;5557;51.670;7.788;2022-10-17T11:44:47;3.93;;;2.70;;
11008;SDS011;5557;51.670;7.788;2022-10-17T11:47:41;6.27;;;2.70;;
11008;SDS011;5557;51.670;7.788;2022-10-17T11:50:34;2.60;;;2.50;;
11008;SDS011;5557;51.670;7.788;2022-10-17T11:53:25;10.07;;;2.77;;
11008;SDS011;5557;51.670;7.788;2022-10-17T11:55:59;3.77;;;3.33;;
11008;SDS011;5557;51.670;7.788;2022-10-17T11:58:33;4.10;;;2.90;;
11008;SDS011;5557;51.670;7.788;2022-10-17T12:01:40;10.07;;;3.37;;
11008;SDS011;5557;51.670;7.788;2022-10-17T12:07:33;9.60;;;3.17;;
11008;SDS011;5557;51.670;7.788;2022-10-17T12:13:48;2.70;;;2.50;;
11008;SDS011;5557;51.670;7.788;2022-10-17T12:19:18;6.70;;;2.77;;
11008;SDS011;5557;51.670;7.788;2022-10-17T12:24:34;2.03;;;1.93;;
11008;SDS011;5557;51.670;7.788;2022-10-17T12:30:02;10.43;;;2.67;;
11008;SDS011;5557;51.670;7.788;2022-10-17T12:35:44;3.73;;;2.20;;
11008;SDS011;5557;51.670;7.788;2022-10-17T12:40:48;3.93;;;3.43;;
11008;SDS011;5557;51.670;7.788;2022-10-17T12:49:19;8.90;;;3.00;;
11008;SDS011;5557;51.670;7.788;2022-10-17T12:55:09;5.50;;;3.20;;
11008;SDS011;5557;51.670;7.788;2022-10-17T12:57:41;8.73;;;2.90;;
11008;SDS011;5557;51.670;7.788;2022-10-17T13:03:25;2.80;;;2.70;;
11008;SDS011;5557;51.670;7.788;2022-10-17T13:06:01;3.40;;;3.10;;
11008;SDS011;5557;51.670;7.788;2022-10-17T13:08:32;5.30;;;2.63;;
11008;SDS011;5557;51.670;7.788;2022-10-17T13:11:10;3.73;;;2.37;;
11008;SDS011;5557;51.670;7.788;2022-10-17T13:13:45;6.50;;;3.07;;
11008;SDS011;5557;51.670;7.788;2022-10-17T13:16:26;3.40;;;2.50;;
11008;SDS011;5557;51.670;7.788;2022-10-17T13:19:12;2.80;;;2.40;;
11008;SDS011;5557;51.670;7.788;2022-10-17T13:21:58;3.63;;;2.90;;
11008;SDS011;5557;51.670;7.788;2022-10-17T13:24:33;4.13;;;3.57;;
11008;SDS011;5557;51.670;7.788;2022-10-17T13:27:05;4.80;;;4.37;;
11008;SDS011;5557;51.670;7.788;2022-10-17T13:29:47;8.20;;;3.03;;
11008;SDS011;5557;51.670;7.788;2022-10-17T13:32:14;5.57;;;3.53;;
11008;SDS011;5557;51.670;7.788;2022-10-17T13:34:41;6.33;;;3.20;;
11008;SDS011;5557;51.670;7.788;2022-10-17T13:37:10;3.20;;;3.00;;
11008;SDS011;5557;51.670;7.788;2022-10-17T13:39:40;10.33;;;2.80;;
11008;SDS011;5557;51.670;7.788;2022-10-17T13:42:28;6.00;;;3.43;;
11008;SDS011;5557;51.670;7.788;2022-10-17T13:44:57;4.50;;;2.60;;
11008;SDS011;5557;51.670;7.788;2022-10-17T13:47:26;4.80;;;2.83;;
11008;SDS011;5557;51.670;7.788;2022-10-17T13:49:56;6.43;;;3.30;;
11008;SDS011;5557;51.670;7.788;2022-10-17T13:52:25;5.10;;;2.80;;
11008;SDS011;5557;51.670;7.788;2022-10-17T13:54:59;14.37;;;3.07;;
11008;SDS011;5557;51.670;7.788;2022-10-17T13:57:42;5.33;;;3.17;;
11008;SDS011;5557;51.670;7.788;2022-10-17T14:00:19;3.70;;;3.40;;
11008;SDS011;5557;51.670;7.788;2022-10-17T14:02:48;8.90;;;3.50;;
11008;SDS011;5557;51.670;7.788;2022-10-17T14:05:18;16.27;;;3.03;;
11008;SDS011;5557;51.670;7.788;2022-10-17T14:07:59;4.00;;;2.63;;
11008;SDS011;5557;51.670;7.788;2022-10-17T14:10:38;6.33;;;3.00;;
11008;SDS011;5557;51.670;7.788;2022-10-17T14:13:06;3.30;;;3.00;;
11008;SDS011;5557;51.670;7.788;2022-10-17T14:15:49;11.37;;;2.70;;
11008;SDS011;5557;51.670;7.788;2022-10-17T14:18:20;9.57;;;3.17;;
11008;SDS011;5557;51.670;7.788;2022-10-17T14:21:02;3.43;;;3.13;;
11008;SDS011;5557;51.670;7.788;2022-10-17T14:23:51;12.73;;;3.30;;
11008;SDS011;5557;51.670;7.788;2022-10-17T14:26:45;6.60;;;2.97;;
11008;SDS011;5557;51.670;7.788;2022-10-17T14:29:31;4.17;;;3.37;;
11008;SDS011;5557;51.670;7.788;2022-10-17T14:32:15;3.93;;;3.07;;
11008;SDS011;5557;51.670;7.788;2022-10-17T14:34:43;8.53;;;3.10;;
11008;SDS011;5557;51.670;7.788;2022-10-17T14:37:18;6.70;;;2.83;;
11008;SDS011;5557;51.670;7.788;2022-10-17T14:40:04;5.17;;;3.20;;
11008;SDS011;5557;51.670;7.788;2022-10-17T14:42:40;3.83;;;2.57;;
11008;SDS011;5557;51.670;7.788;2022-10-17T14:45:10;5.07;;;3.03;;
11008;SDS011;5557;51.670;7.788;2022-10-17T14:47:40;5.70;;;2.93;;
11008;SDS011;5557;51.670;7.788;2022-10-17T14:56:02;3.23;;;2.93;;
11008;SDS011;5557;51.670;7.788;2022-10-17T14:58:31;3.23;;;2.90;;
11008;SDS011;5557;51.670;7.788;2022-10-17T15:00:59;5.53;;;2.80;;
11008;SDS011;5557;51.670;7.788;2022-10-17T15:03:27;4.00;;;3.53;;
11008;SDS011;5557;51.670;7.788;2022-10-17T15:05:54;5.57;;;3.00;;
11008;SDS011;5557;51.670;7.788;2022-10-17T15:08:21;3.10;;;2.80;;
11008;SDS011;5557;51.670;7.788;2022-10-17T15:10:49;12.77;;;4.07;;
11008;SDS011;5557;51.670;7.788;2022-10-17T15:13:17;7.93;;;3.60;;
11008;SDS011;5557;51.670;7.788;2022-10-17T15:15:54;7.80;;;2.90;;
11008;SDS011;5557;51.670;7.788;2022-10-17T15:18:21;5.63;;;3.10;;
11008;SDS011;5557;51.670;7.788;2022-10-17T15:20:48;5.30;;;3.40;;
11008;SDS011;5557;51.670;7.788;2022-10-17T15:23:29;14.40;;;3.13;;
11008;SDS011;5557;51.670;7.788;2022-10-17T15:25:56;7.03;;;2.63;;
11008;SDS011;5557;51.670;7.788;2022-10-17T15:28:23;7.80;;;3.70;;
11008;SDS011;5557;51.670;7.788;2022-10-17T15:30:50;7.63;;;3.70;;
11008;SDS011;5557;51.670;7.788;2022-10-17T15:33:17;9.43;;;5.07;;
11008;SDS011;5557;51.670;7.788;2022-10-17T15:35:44;7.53;;;4.47;;
11008;SDS011;5557;51.670;7.788;2022-10-17T15:38:11;14.63;;;3.70;;
11008;SDS011;5557;51.670;7.788;2022-10-17T15:40:42;6.73;;;3.63;;
11008;SDS011;5557;51.670;7.788;2022-10-17T15:43:09;3.40;;;3.10;;
11008;SDS011;5557;51.670;7.788;2022-10-17T15:45:36;5.33;;;3.10;;
11008;SDS011;5557;51.670;7.788;2022-10-17T15:48:05;10.90;;;3.40;;
11008;SDS011;5557;51.670;7.788;2022-10-17T15:50:33;7.77;;;3.40;;
11008;SDS011;5557;51.670;7.788;2022-10-17T15:53:00;4.03;;;3.43;;
11008;SDS011;5557;51.670;7.788;2022-10-17T15:55:27;18.20;;;3.80;;
11008;SDS011;5557;51.670;7.788;2022-10-17T15:57:54;7.63;;;4.23;;
11008;SDS011;5557;51.670;7.788;2022-10-17T16:00:22;6.30;;;3.40;;
11008;SDS011;5557;51.670;7.788;2022-10-17T16:02:50;5.77;;;4.43;;
11008;SDS011;5557;51.670;7.788;2022-10-17T16:05:20;13.77;;;5.10;;
11008;SDS011;5557;51.670;7.788;2022-10-17T16:07:51;10.20;;;5.00;;
11008;SDS011;5557;51.670;7.788;2022-10-17T16:10:19;9.77;;;5.20;;
11008;SDS011;5557;51.670;7.788;2022-10-17T16:12:47;9.30;;;5.63;;
11008;SDS011;5557;51.670;7.788;2022-10-17T16:15:17;10.87;;;5.30;;
11008;SDS011;5557;51.670;7.788;2022-10-17T16:17:48;16.80;;;5.10;;
11008;SDS011;5557;51.670;7.788;2022-10-17T16:20:15;10.27;;;5.70;;
11008;SDS011;5557;51.670;7.788;2022-10-17T16:22:43;8.70;;;5.60;;
11008;SDS011;5557;51.670;7.788;2022-10-17T16:25:23;7.87;;;6.40;;
11008;SDS011;5557;51.670;7.788;2022-10-17T16:27:53;8.43;;;6.37;;
11008;SDS011;5557;51.670;7.788;2022-10-17T16:30:22;9.03;;;7.23;;
11008;SDS011;5557;51.670;7.788;2022-10-17T16:32:51;18.23;;;6.80;;
11008;SDS011;5557;51.670;7.788;2022-10-17T16:35:20;13.43;;;7.27;;
11008;SDS011;5557;51.670;7.788;2022-10-17T16:37:58;12.97;;;7.47;;
11008;SDS011;5557;51.670;7.788;2022-10-17T16:40:25;7.13;;;6.37;;
11008;SDS011;5557;51.670;7.788;2022-10-17T16:42:52;7.90;;;7.20;;
11008;SDS011;5557;51.670;7.788;2022-10-17T16:45:20;10.20;;;7.17;;
11008;SDS011;5557;51.670;7.788;2022-10-17T16:47:48;9.80;;;6.67;;
11008;SDS011;5557;51.670;7.788;2022-10-17T16:50:15;13.00;;;7.70;;
11008;SDS011;5557;51.670;7.788;2022-10-17T16:52:43;12.53;;;6.77;;
11008;SDS011;5557;51.670;7.788;2022-10-17T16:57:45;8.23;;;7.17;;
11008;SDS011;5557;51.670;7.788;2022-10-17T17:00:14;12.63;;;7.77;;
11008;SDS011;5557;51.670;7.788;2022-10-17T17:02:42;9.10;;;6.40;;
11008;SDS011;5557;51.670;7.788;2022-10-17T17:05:12;9.10;;;7.03;;
11008;SDS011;5557;51.670;7.788;2022-10-17T17:07:39;10.60;;;7.40;;
11008;SDS011;5557;51.670;7.788;2022-10-17T17:10:07;9.93;;;6.93;;